createdAt,value
2019-05-26T00:00:54.941Z,1016.28
2019-05-26T00:01:54.851Z,1016.31
2019-05-26T00:02:54.839Z,1016.36
2019-05-26T00:03:54.854Z,1016.29
2019-05-26T00:04:54.818Z,1016.32
2019-05-26T00:05:54.867Z,1016.36
2019-05-26T00:06:54.801Z,1016.21
2019-05-26T00:07:54.769Z,1016.24
2019-05-26T00:08:54.789Z,1016.28
2019-05-26T00:09:54.767Z,1016.26
2019-05-26T00:10:54.755Z,1016.17
2019-05-26T00:11:54.747Z,1016.27
2019-05-26T00:12:54.737Z,1016.28
2019-05-26T00:13:54.736Z,1016.26
2019-05-26T00:14:54.715Z,1016.27
2019-05-26T00:15:54.685Z,1016.23
2019-05-26T00:16:54.672Z,1016.30
2019-05-26T00:17:54.684Z,1016.18
2019-05-26T00:18:54.687Z,1016.28
2019-05-26T00:19:54.647Z,1016.23
2019-05-26T00:20:54.653Z,1016.23
2019-05-26T00:21:54.623Z,1016.23
2019-05-26T00:22:54.626Z,1016.18
2019-05-26T00:23:56.370Z,1016.23
2019-05-26T00:24:54.581Z,1016.22
2019-05-26T00:25:54.592Z,1016.21
2019-05-26T00:26:54.588Z,1016.22
2019-05-26T00:27:54.578Z,1016.20
2019-05-26T00:28:54.573Z,1016.13
2019-05-26T00:29:54.557Z,1016.15
2019-05-26T00:30:54.540Z,1016.18
2019-05-26T00:31:54.525Z,1016.12
2019-05-26T00:32:54.510Z,1016.12
2019-05-26T00:33:54.548Z,1016.11
2019-05-26T00:34:54.488Z,1016.14
2019-05-26T00:35:54.488Z,1016.11
2019-05-26T00:36:54.462Z,1016.12
2019-05-26T00:37:54.459Z,1016.11
2019-05-26T00:38:54.496Z,1016.13
2019-05-26T00:39:54.429Z,1016.07
2019-05-26T00:40:54.427Z,1016.06
2019-05-26T00:41:54.405Z,1016.00
2019-05-26T00:42:54.415Z,1015.99
2019-05-26T00:43:54.414Z,1015.98
2019-05-26T00:44:54.386Z,1015.92
2019-05-26T00:45:54.363Z,1015.82
2019-05-26T00:46:54.352Z,1015.86
2019-05-26T00:47:54.342Z,1015.88
2019-05-26T00:48:54.353Z,1015.82
2019-05-26T00:49:54.356Z,1015.78
2019-05-26T00:50:54.343Z,1015.78
2019-05-26T00:51:54.341Z,1015.75
2019-05-26T00:52:56.785Z,1015.83
2019-05-26T00:53:54.340Z,1015.70
2019-05-26T00:54:54.271Z,1015.69
2019-05-26T00:55:54.259Z,1015.70
2019-05-26T00:56:54.287Z,1015.67
2019-05-26T00:57:54.252Z,1015.65
2019-05-26T00:58:54.237Z,1015.70
2019-05-26T00:59:54.208Z,1015.67
2019-05-26T01:00:54.208Z,1015.74
2019-05-26T01:01:54.268Z,1015.70
2019-05-26T01:02:54.182Z,1015.65
2019-05-26T01:03:54.187Z,1015.69
2019-05-26T01:04:54.198Z,1015.67
2019-05-26T01:05:54.148Z,1015.68
2019-05-26T01:06:54.135Z,1015.68
2019-05-26T01:08:05.813Z,1015.63
2019-05-26T01:08:55.124Z,1015.64
2019-05-26T01:09:54.126Z,1015.65
2019-05-26T01:10:54.186Z,1015.62
2019-05-26T01:11:54.084Z,1015.55
2019-05-26T01:12:54.074Z,1015.56
2019-05-26T01:13:54.073Z,1015.51
2019-05-26T01:14:54.052Z,1015.58
2019-05-26T01:15:54.052Z,1015.53
2019-05-26T01:16:56.046Z,1015.54
2019-05-26T01:17:54.035Z,1015.47
2019-05-26T01:18:54.031Z,1015.47
2019-05-26T01:19:54.022Z,1015.40
2019-05-26T01:20:53.989Z,1015.43
2019-05-26T01:21:54.001Z,1015.47
2019-05-26T01:22:54.101Z,1015.48
2019-05-26T01:23:53.982Z,1015.43
2019-05-26T01:24:53.948Z,1015.47
2019-05-26T01:25:53.928Z,1015.49
2019-05-26T01:26:53.961Z,1015.38
2019-05-26T01:27:53.908Z,1015.39
2019-05-26T01:28:53.937Z,1015.43
2019-05-26T01:29:53.927Z,1015.39
2019-05-26T01:30:53.885Z,1015.38
2019-05-26T01:31:53.875Z,1015.38
2019-05-26T01:32:54.408Z,1015.41
2019-05-26T01:33:53.855Z,1015.46
2019-05-26T01:34:53.846Z,1015.37
2019-05-26T01:35:53.823Z,1015.43
2019-05-26T01:36:53.827Z,1015.48
2019-05-26T01:37:53.804Z,1015.41
2019-05-26T01:38:53.802Z,1015.46
2019-05-26T01:39:53.861Z,1015.41
2019-05-26T01:40:53.782Z,1015.37
2019-05-26T01:41:53.762Z,1015.43
2019-05-26T01:42:53.777Z,1015.40
2019-05-26T01:43:53.877Z,1015.34
2019-05-26T01:44:53.759Z,1015.37
2019-05-26T01:45:53.732Z,1015.34
2019-05-26T01:46:53.709Z,1015.36
2019-05-26T01:47:53.726Z,1015.39
2019-05-26T01:48:53.709Z,1015.34
2019-05-26T01:49:53.719Z,1015.35
2019-05-26T01:50:53.668Z,1015.36
2019-05-26T01:51:53.677Z,1015.30
2019-05-26T01:52:53.648Z,1015.27
2019-05-26T01:53:53.638Z,1015.29
2019-05-26T01:54:53.686Z,1015.27
2019-05-26T01:55:53.637Z,1015.08
2019-05-26T01:56:53.616Z,1015.20
2019-05-26T01:57:53.625Z,1015.21
2019-05-26T01:58:53.575Z,1015.33
2019-05-26T01:59:53.566Z,1015.20
2019-05-26T02:00:53.577Z,1015.28
2019-05-26T02:01:53.565Z,1015.23
2019-05-26T02:02:53.536Z,1015.19
2019-05-26T02:03:53.524Z,1015.21
2019-05-26T02:04:53.543Z,1015.17
2019-05-26T02:05:53.510Z,1015.17
2019-05-26T02:06:53.515Z,1015.13
2019-05-26T02:07:53.486Z,1015.11
2019-05-26T02:08:53.481Z,1015.11
2019-05-26T02:09:53.480Z,1015.14
2019-05-26T02:10:53.470Z,1015.17
2019-05-26T02:11:53.478Z,1015.08
2019-05-26T02:12:53.481Z,1015.11
2019-05-26T02:13:53.458Z,1015.15
2019-05-26T02:14:54.194Z,1015.08
2019-05-26T02:15:53.422Z,1015.09
2019-05-26T02:16:53.387Z,1015.07
2019-05-26T02:17:53.378Z,1015.05
2019-05-26T02:18:53.435Z,1015.00
2019-05-26T02:19:53.357Z,1014.96
2019-05-26T02:20:53.376Z,1014.97
2019-05-26T02:21:53.335Z,1014.92
2019-05-26T02:22:53.325Z,1014.96
2019-05-26T02:23:53.329Z,1014.93
2019-05-26T02:24:53.317Z,1014.96
2019-05-26T02:25:53.322Z,1014.94
2019-05-26T02:26:53.274Z,1014.78
2019-05-26T02:27:53.273Z,1014.90
2019-05-26T02:28:53.276Z,1014.83
2019-05-26T02:29:53.242Z,1014.84
2019-05-26T02:30:53.262Z,1014.90
2019-05-26T02:31:53.228Z,1014.87
2019-05-26T02:32:53.223Z,1014.89
2019-05-26T02:33:53.247Z,1014.82
2019-05-26T02:34:53.225Z,1014.88
2019-05-26T02:35:53.200Z,1014.91
2019-05-26T02:36:53.192Z,1014.91
2019-05-26T02:37:53.162Z,1014.82
2019-05-26T02:39:01.887Z,1014.85
2019-05-26T02:39:54.170Z,1014.83
2019-05-26T02:40:53.167Z,1014.88
2019-05-26T02:41:53.133Z,1014.82
2019-05-26T02:42:53.129Z,1014.84
2019-05-26T02:43:53.103Z,1014.89
2019-05-26T02:44:53.091Z,1014.79
2019-05-26T02:45:53.098Z,1014.86
2019-05-26T02:46:53.081Z,1014.81
2019-05-26T02:47:53.055Z,1014.80
2019-05-26T02:48:53.060Z,1014.81
2019-05-26T02:49:53.046Z,1014.81
2019-05-26T02:50:53.045Z,1014.81
2019-05-26T02:51:53.045Z,1014.80
2019-05-26T02:52:53.052Z,1014.77
2019-05-26T02:53:53.000Z,1014.79
2019-05-26T02:54:52.992Z,1014.72
2019-05-26T02:55:52.975Z,1014.78
2019-05-26T02:56:52.971Z,1014.68
2019-05-26T02:57:52.961Z,1014.69
2019-05-26T02:58:52.952Z,1014.76
2019-05-26T02:59:52.964Z,1014.72
2019-05-26T03:00:52.966Z,1014.68
2019-05-26T03:02:03.042Z,1014.66
2019-05-26T03:02:53.914Z,1014.69
2019-05-26T03:03:52.892Z,1014.69
2019-05-26T03:04:52.883Z,1014.65
2019-05-26T03:05:52.894Z,1014.66
2019-05-26T03:06:52.892Z,1014.65
2019-05-26T03:07:52.859Z,1014.60
2019-05-26T03:08:52.837Z,1014.62
2019-05-26T03:09:52.825Z,1014.52
2019-05-26T03:10:52.847Z,1014.57
2019-05-26T03:11:52.822Z,1014.60
2019-05-26T03:12:52.796Z,1014.54
2019-05-26T03:13:52.775Z,1014.64
2019-05-26T03:14:52.786Z,1014.67
2019-05-26T03:15:52.808Z,1014.64
2019-05-26T03:16:52.744Z,1014.58
2019-05-26T03:17:52.778Z,1014.56
2019-05-26T03:18:52.724Z,1014.58
2019-05-26T03:19:52.734Z,1014.52
2019-05-26T03:20:52.721Z,1014.51
2019-05-26T03:21:52.690Z,1014.51
2019-05-26T03:22:52.693Z,1014.53
2019-05-26T03:23:52.701Z,1014.54
2019-05-26T03:24:52.680Z,1014.53
2019-05-26T03:25:52.700Z,1014.51
2019-05-26T03:26:52.639Z,1014.46
2019-05-26T03:27:52.658Z,1014.36
2019-05-26T03:28:52.637Z,1014.51
2019-05-26T03:29:52.619Z,1014.47
2019-05-26T03:30:52.609Z,1014.41
2019-05-26T03:31:52.589Z,1014.41
2019-05-26T03:32:52.581Z,1014.38
2019-05-26T03:33:52.579Z,1014.44
2019-05-26T03:34:52.576Z,1014.35
2019-05-26T03:35:52.577Z,1014.35
2019-05-26T03:36:52.540Z,1014.39
2019-05-26T03:37:52.527Z,1014.36
2019-05-26T03:38:52.524Z,1014.38
2019-05-26T03:39:52.497Z,1014.42
2019-05-26T03:40:52.501Z,1014.43
2019-05-26T03:41:52.488Z,1014.44
2019-05-26T03:42:52.465Z,1014.41
2019-05-26T03:43:52.473Z,1014.38
2019-05-26T03:44:52.444Z,1014.46
2019-05-26T03:45:52.464Z,1014.44
2019-05-26T03:46:52.442Z,1014.40
2019-05-26T03:47:52.443Z,1014.44
2019-05-26T03:48:52.437Z,1014.41
2019-05-26T03:49:52.396Z,1014.37
2019-05-26T03:50:52.402Z,1014.41
2019-05-26T03:51:52.404Z,1014.32
2019-05-26T03:52:52.368Z,1014.34
2019-05-26T03:53:52.357Z,1014.39
2019-05-26T03:54:52.361Z,1014.39
2019-05-26T03:55:52.351Z,1014.37
2019-05-26T03:56:52.330Z,1014.37
2019-05-26T03:57:52.318Z,1014.36
2019-05-26T03:58:52.320Z,1014.38
2019-05-26T03:59:52.321Z,1014.28
2019-05-26T04:00:52.298Z,1014.29
2019-05-26T04:01:57.311Z,1014.24
2019-05-26T04:02:53.258Z,1014.28
2019-05-26T04:03:52.261Z,1014.26
2019-05-26T04:04:52.252Z,1014.18
2019-05-26T04:05:52.258Z,1014.24
2019-05-26T04:06:52.228Z,1014.25
2019-05-26T04:07:52.218Z,1014.14
2019-05-26T04:08:52.204Z,1014.18
2019-05-26T04:10:03.705Z,1014.15
2019-05-26T04:10:53.183Z,1014.16
2019-05-26T04:11:52.181Z,1014.17
2019-05-26T04:12:52.204Z,1014.11
2019-05-26T04:13:52.202Z,1014.11
2019-05-26T04:14:52.125Z,1014.07
2019-05-26T04:15:52.123Z,1014.15
2019-05-26T04:16:52.104Z,1014.07
2019-05-26T04:17:52.095Z,1014.07
2019-05-26T04:18:52.137Z,1014.06
2019-05-26T04:19:52.072Z,1014.12
2019-05-26T04:20:52.063Z,1014.05
2019-05-26T04:21:52.070Z,1013.97
2019-05-26T04:22:52.042Z,1014.03
2019-05-26T04:23:52.049Z,1014.09
2019-05-26T04:24:52.031Z,1014.05
2019-05-26T04:25:52.020Z,1014.07
2019-05-26T04:26:52.000Z,1014.06
2019-05-26T04:27:51.990Z,1014.10
2019-05-26T04:28:52.015Z,1014.14
2019-05-26T04:29:51.975Z,1014.17
2019-05-26T04:30:51.970Z,1014.10
2019-05-26T04:31:51.957Z,1014.03
2019-05-26T04:32:51.936Z,1013.97
2019-05-26T04:33:51.930Z,1014.00
2019-05-26T04:34:51.914Z,1014.02
2019-05-26T04:35:51.936Z,1013.98
2019-05-26T04:36:51.898Z,1014.02
2019-05-26T04:37:51.915Z,1014.02
2019-05-26T04:38:51.889Z,1013.99
2019-05-26T04:39:51.874Z,1013.98
2019-05-26T04:40:51.852Z,1013.96
2019-05-26T04:41:51.858Z,1013.95
2019-05-26T04:42:51.842Z,1013.89
2019-05-26T04:43:51.824Z,1013.88
2019-05-26T04:44:51.818Z,1013.87
2019-05-26T04:45:51.813Z,1013.91
2019-05-26T04:46:51.809Z,1013.89
2019-05-26T04:47:51.846Z,1013.86
2019-05-26T04:48:51.770Z,1013.86
2019-05-26T04:49:51.779Z,1013.82
2019-05-26T04:50:51.760Z,1013.90
2019-05-26T04:51:51.742Z,1013.90
2019-05-26T04:53:05.573Z,1013.89
2019-05-26T04:53:52.708Z,1013.86
2019-05-26T04:54:51.729Z,1013.90
2019-05-26T04:55:51.689Z,1013.78
2019-05-26T04:56:51.677Z,1013.79
2019-05-26T04:57:51.667Z,1013.87
2019-05-26T04:58:51.670Z,1013.87
2019-05-26T04:59:51.692Z,1013.82
2019-05-26T05:00:51.651Z,1013.81
2019-05-26T05:01:51.627Z,1013.84
2019-05-26T05:02:51.614Z,1013.82
2019-05-26T05:03:51.594Z,1013.84
2019-05-26T05:04:51.679Z,1013.75
2019-05-26T05:05:51.593Z,1013.78
2019-05-26T05:06:51.567Z,1013.78
2019-05-26T05:07:51.565Z,1013.76
2019-05-26T05:08:51.569Z,1013.76
2019-05-26T05:09:51.531Z,1013.73
2019-05-26T05:10:51.540Z,1013.72
2019-05-26T05:11:51.510Z,1013.72
2019-05-26T05:12:51.501Z,1013.68
2019-05-26T05:13:51.490Z,1013.75
2019-05-26T05:14:51.540Z,1013.75
2019-05-26T05:15:51.495Z,1013.79
2019-05-26T05:16:51.478Z,1013.81
2019-05-26T05:17:51.489Z,1013.79
2019-05-26T05:18:51.447Z,1013.81
2019-05-26T05:19:51.429Z,1013.80
2019-05-26T05:20:51.438Z,1013.77
2019-05-26T05:21:51.410Z,1013.67
2019-05-26T05:22:51.406Z,1013.67
2019-05-26T05:23:51.386Z,1013.67
2019-05-26T05:24:51.394Z,1013.62
2019-05-26T05:25:51.376Z,1013.60
2019-05-26T05:26:51.358Z,1013.61
2019-05-26T05:27:51.362Z,1013.65
2019-05-26T05:28:51.326Z,1013.62
2019-05-26T05:29:51.315Z,1013.60
2019-05-26T05:30:51.334Z,1013.56
2019-05-26T05:31:51.304Z,1013.60
2019-05-26T05:32:51.303Z,1013.50
2019-05-26T05:33:51.353Z,1013.50
2019-05-26T05:34:51.285Z,1013.46
2019-05-26T05:35:51.252Z,1013.48
2019-05-26T05:36:51.254Z,1013.40
2019-05-26T05:37:51.241Z,1013.47
2019-05-26T05:38:51.231Z,1013.42
2019-05-26T05:39:51.239Z,1013.46
2019-05-26T05:40:59.366Z,1013.43
2019-05-26T05:41:52.203Z,1013.34
2019-05-26T05:42:51.178Z,1013.39
2019-05-26T05:43:51.179Z,1013.43
2019-05-26T05:44:51.150Z,1013.39
2019-05-26T05:45:51.143Z,1013.45
2019-05-26T05:46:51.138Z,1013.48
2019-05-26T05:47:51.127Z,1013.48
2019-05-26T05:48:51.164Z,1013.48
2019-05-26T05:49:51.107Z,1013.48
2019-05-26T05:50:51.188Z,1013.47
2019-05-26T05:51:51.125Z,1013.59
2019-05-26T05:52:51.087Z,1013.57
2019-05-26T05:53:51.065Z,1013.60
2019-05-26T05:54:51.085Z,1013.43
2019-05-26T05:55:51.034Z,1013.43
2019-05-26T05:56:51.025Z,1013.38
2019-05-26T05:57:51.012Z,1013.48
2019-05-26T05:58:51.023Z,1013.41
2019-05-26T05:59:50.993Z,1013.40
2019-05-26T06:00:50.983Z,1013.42
2019-05-26T06:01:50.990Z,1013.38
2019-05-26T06:02:50.953Z,1013.39
2019-05-26T06:03:50.972Z,1013.43
2019-05-26T06:04:50.951Z,1013.37
2019-05-26T06:05:50.931Z,1013.34
2019-05-26T06:06:50.912Z,1013.34
2019-05-26T06:07:50.921Z,1013.34
2019-05-26T06:08:51.078Z,1013.47
2019-05-26T06:09:50.891Z,1013.38
2019-05-26T06:10:50.873Z,1013.35
2019-05-26T06:11:54.435Z,1013.36
2019-05-26T06:12:51.849Z,1013.33
2019-05-26T06:13:50.866Z,1013.37
2019-05-26T06:14:50.851Z,1013.32
2019-05-26T06:15:51.434Z,1013.27
2019-05-26T06:16:50.808Z,1013.30
2019-05-26T06:17:50.801Z,1013.32
2019-05-26T06:18:50.809Z,1013.33
2019-05-26T06:19:50.777Z,1013.28
2019-05-26T06:20:50.778Z,1013.28
2019-05-26T06:21:50.848Z,1013.31
2019-05-26T06:22:50.756Z,1013.26
2019-05-26T06:23:50.886Z,1013.35
2019-05-26T06:24:50.727Z,1013.28
2019-05-26T06:25:50.755Z,1013.30
2019-05-26T06:26:50.719Z,1013.31
2019-05-26T06:27:50.685Z,1013.38
2019-05-26T06:28:52.444Z,1013.30
2019-05-26T06:29:58.859Z,1013.36
2019-05-26T06:30:51.685Z,1013.25
2019-05-26T06:31:50.802Z,1013.23
2019-05-26T06:32:50.653Z,1013.31
2019-05-26T06:33:50.622Z,1013.32
2019-05-26T06:34:50.633Z,1013.25
2019-05-26T06:35:50.603Z,1013.32
2019-05-26T06:36:50.596Z,1013.37
2019-05-26T06:37:50.582Z,1013.31
2019-05-26T06:38:50.582Z,1013.28
2019-05-26T06:39:50.624Z,1013.24
2019-05-26T06:40:50.579Z,1013.21
2019-05-26T06:41:50.543Z,1013.28
2019-05-26T06:42:50.531Z,1013.23
2019-05-26T06:43:50.520Z,1013.25
2019-05-26T06:44:53.870Z,1013.26
2019-05-26T06:45:50.509Z,1013.22
2019-05-26T06:46:50.492Z,1013.22
2019-05-26T06:47:50.490Z,1013.28
2019-05-26T06:48:50.480Z,1013.25
2019-05-26T06:49:50.481Z,1013.22
2019-05-26T06:50:50.457Z,1013.24
2019-05-26T06:51:50.436Z,1013.21
2019-05-26T06:52:50.427Z,1013.31
2019-05-26T06:53:50.408Z,1013.37
2019-05-26T06:54:50.397Z,1013.38
2019-05-26T06:55:50.396Z,1013.41
2019-05-26T06:56:50.386Z,1013.42
2019-05-26T06:57:50.384Z,1013.38
2019-05-26T06:58:50.359Z,1013.45
2019-05-26T06:59:50.345Z,1013.34
2019-05-26T07:00:50.356Z,1013.36
2019-05-26T07:01:50.326Z,1013.32
2019-05-26T07:02:50.335Z,1013.33
2019-05-26T07:03:50.316Z,1013.36
2019-05-26T07:04:50.294Z,1013.32
2019-05-26T07:05:50.294Z,1013.37
2019-05-26T07:06:50.274Z,1013.27
2019-05-26T07:07:50.252Z,1013.31
2019-05-26T07:08:50.252Z,1013.24
2019-05-26T07:09:50.257Z,1013.27
2019-05-26T07:10:50.231Z,1013.24
2019-05-26T07:11:58.842Z,1013.26
2019-05-26T07:12:51.214Z,1013.16
2019-05-26T07:13:50.231Z,1013.23
2019-05-26T07:14:50.188Z,1013.23
2019-05-26T07:15:50.190Z,1013.16
2019-05-26T07:16:50.167Z,1013.16
2019-05-26T07:17:50.150Z,1013.14
2019-05-26T07:18:50.150Z,1013.15
2019-05-26T07:19:50.139Z,1013.18
2019-05-26T07:20:50.136Z,1013.25
2019-05-26T07:21:50.113Z,1013.26
2019-05-26T07:22:50.147Z,1013.25
2019-05-26T07:23:50.087Z,1013.28
2019-05-26T07:24:50.077Z,1013.24
2019-05-26T07:25:50.078Z,1013.20
2019-05-26T07:26:50.077Z,1013.28
2019-05-26T07:27:50.470Z,1013.25
2019-05-26T07:28:50.039Z,1013.23
2019-05-26T07:29:50.026Z,1013.25
2019-05-26T07:30:50.036Z,1013.23
2019-05-26T07:31:50.014Z,1013.18
2019-05-26T07:32:49.999Z,1013.27
2019-05-26T07:33:49.983Z,1013.33
2019-05-26T07:34:49.996Z,1013.25
2019-05-26T07:35:50.128Z,1013.22
2019-05-26T07:36:49.955Z,1013.23
2019-05-26T07:37:49.941Z,1013.19
2019-05-26T07:38:49.927Z,1013.17
2019-05-26T07:39:49.934Z,1013.20
2019-05-26T07:40:49.923Z,1013.23
2019-05-26T07:42:08.282Z,1013.27
2019-05-26T07:42:50.883Z,1013.21
2019-05-26T07:43:49.876Z,1013.30
2019-05-26T07:44:49.863Z,1013.20
2019-05-26T07:45:49.872Z,1013.21
2019-05-26T07:46:49.853Z,1013.11
2019-05-26T07:47:49.840Z,1013.15
2019-05-26T07:48:49.820Z,1013.23
2019-05-26T07:49:49.810Z,1013.25
2019-05-26T07:50:49.819Z,1013.22
2019-05-26T07:51:49.792Z,1013.24
2019-05-26T07:52:49.786Z,1013.18
2019-05-26T07:53:49.773Z,1013.26
2019-05-26T07:54:49.757Z,1013.19
2019-05-26T07:55:49.766Z,1013.26
2019-05-26T07:56:49.739Z,1013.23
2019-05-26T07:57:49.727Z,1013.23
2019-05-26T07:58:49.711Z,1013.25
2019-05-26T07:59:49.707Z,1013.22
2019-05-26T08:00:49.706Z,1013.24
2019-05-26T08:01:49.686Z,1013.23
2019-05-26T08:02:49.702Z,1013.19
2019-05-26T08:03:49.659Z,1013.21
2019-05-26T08:04:49.646Z,1013.23
2019-05-26T08:05:49.645Z,1013.20
2019-05-26T08:06:49.637Z,1013.16
2019-05-26T08:07:49.615Z,1013.15
2019-05-26T08:08:49.607Z,1013.17
2019-05-26T08:09:49.594Z,1013.15
2019-05-26T08:10:49.596Z,1013.19
2019-05-26T08:11:49.576Z,1013.21
2019-05-26T08:12:49.570Z,1013.13
2019-05-26T08:13:49.567Z,1013.14
2019-05-26T08:14:49.543Z,1013.13
2019-05-26T08:15:49.543Z,1013.21
2019-05-26T08:16:49.524Z,1013.13
2019-05-26T08:17:49.511Z,1013.19
2019-05-26T08:18:49.502Z,1013.15
2019-05-26T08:19:49.495Z,1013.14
2019-05-26T08:20:49.492Z,1013.10
2019-05-26T08:21:49.462Z,1013.05
2019-05-26T08:22:49.460Z,1013.11
2019-05-26T08:23:49.453Z,1013.06
2019-05-26T08:24:49.441Z,1013.13
2019-05-26T08:25:49.481Z,1013.13
2019-05-26T08:26:49.420Z,1013.06
2019-05-26T08:27:50.010Z,1013.03
2019-05-26T08:28:49.391Z,1013.11
2019-05-26T08:29:49.385Z,1013.04
2019-05-26T08:30:49.389Z,1012.95
2019-05-26T08:31:49.369Z,1013.08
2019-05-26T08:32:49.348Z,1013.05
2019-05-26T08:33:49.338Z,1013.07
2019-05-26T08:34:49.328Z,1012.96
2019-05-26T08:35:49.329Z,1012.97
2019-05-26T08:36:49.318Z,1012.98
2019-05-26T08:37:49.299Z,1013.03
2019-05-26T08:38:49.296Z,1012.99
2019-05-26T08:39:49.285Z,1013.04
2019-05-26T08:40:49.257Z,1012.94
2019-05-26T08:41:49.255Z,1012.99
2019-05-26T08:42:49.268Z,1013.00
2019-05-26T08:43:49.228Z,1012.96
2019-05-26T08:44:49.230Z,1012.93
2019-05-26T08:45:49.205Z,1012.95
2019-05-26T08:46:49.209Z,1013.06
2019-05-26T08:47:49.265Z,1012.98
2019-05-26T08:48:49.176Z,1012.96
2019-05-26T08:49:49.164Z,1012.97
2019-05-26T08:50:49.162Z,1012.87
2019-05-26T08:51:49.152Z,1012.95
2019-05-26T08:52:49.152Z,1012.99
2019-05-26T08:53:49.124Z,1012.95
2019-05-26T08:54:49.124Z,1012.96
2019-05-26T08:55:49.105Z,1013.02
2019-05-26T08:56:49.102Z,1013.01
2019-05-26T08:57:49.087Z,1013.04
2019-05-26T08:58:49.082Z,1012.90
2019-05-26T08:59:49.077Z,1012.88
2019-05-26T09:00:49.072Z,1012.97
2019-05-26T09:01:49.043Z,1012.96
2019-05-26T09:02:49.031Z,1012.95
2019-05-26T09:03:49.032Z,1013.01
2019-05-26T09:04:49.003Z,1012.93
2019-05-26T09:05:49.001Z,1012.93
2019-05-26T09:06:48.980Z,1013.01
2019-05-26T09:07:48.980Z,1012.96
2019-05-26T09:08:48.979Z,1012.97
2019-05-26T09:09:48.972Z,1013.16
2019-05-26T09:10:48.939Z,1013.06
2019-05-26T09:11:48.937Z,1013.05
2019-05-26T09:13:00.142Z,1013.04
2019-05-26T09:13:49.921Z,1013.02
2019-05-26T09:14:48.908Z,1013.06
2019-05-26T09:15:48.888Z,1013.07
2019-05-26T09:16:48.879Z,1013.07
2019-05-26T09:17:48.867Z,1013.09
2019-05-26T09:18:48.858Z,1013.07
2019-05-26T09:19:48.861Z,1013.04
2019-05-26T09:20:48.850Z,1013.05
2019-05-26T09:21:48.828Z,1013.01
2019-05-26T09:22:48.821Z,1012.91
2019-05-26T09:23:48.816Z,1012.84
2019-05-26T09:24:48.798Z,1012.92
2019-05-26T09:25:48.800Z,1012.84
2019-05-26T09:26:48.776Z,1012.87
2019-05-26T09:27:48.786Z,1012.89
2019-05-26T09:28:48.757Z,1012.94
2019-05-26T09:29:48.755Z,1012.91
2019-05-26T09:30:48.737Z,1012.95
2019-05-26T09:31:48.720Z,1012.89
2019-05-26T09:32:48.716Z,1012.90
2019-05-26T09:33:48.697Z,1012.84
2019-05-26T09:34:48.695Z,1012.90
2019-05-26T09:35:48.686Z,1012.83
2019-05-26T09:36:48.675Z,1012.91
2019-05-26T09:37:48.687Z,1012.90
2019-05-26T09:38:48.654Z,1012.87
2019-05-26T09:39:48.636Z,1012.85
2019-05-26T09:40:48.623Z,1012.78
2019-05-26T09:41:48.641Z,1012.78
2019-05-26T09:42:48.612Z,1012.82
2019-05-26T09:43:48.593Z,1012.75
2019-05-26T09:44:48.583Z,1012.81
2019-05-26T09:45:48.573Z,1012.73
2019-05-26T09:46:48.574Z,1012.80
2019-05-26T09:47:48.552Z,1012.84
2019-05-26T09:48:48.540Z,1012.72
2019-05-26T09:49:48.541Z,1012.83
2019-05-26T09:50:48.531Z,1012.73
2019-05-26T09:51:48.511Z,1012.79
2019-05-26T09:52:48.501Z,1012.78
2019-05-26T09:54:00.790Z,1012.80
2019-05-26T09:54:49.480Z,1012.72
2019-05-26T09:55:48.470Z,1012.74
2019-05-26T09:56:48.458Z,1012.71
2019-05-26T09:57:48.448Z,1012.73
2019-05-26T09:58:48.449Z,1012.69
2019-05-26T09:59:48.428Z,1012.70
2019-05-26T10:00:48.469Z,1012.69
2019-05-26T10:01:48.408Z,1012.63
2019-05-26T10:02:48.398Z,1012.67
2019-05-26T10:03:48.389Z,1012.65
2019-05-26T10:04:48.380Z,1012.64
2019-05-26T10:05:48.357Z,1012.67
2019-05-26T10:06:48.359Z,1012.71
2019-05-26T10:07:48.336Z,1012.63
2019-05-26T10:08:48.329Z,1012.56
2019-05-26T10:09:48.320Z,1012.65
2019-05-26T10:10:48.318Z,1012.65
2019-05-26T10:11:48.296Z,1012.67
2019-05-26T10:12:48.287Z,1012.68
2019-05-26T10:13:48.289Z,1012.79
2019-05-26T10:14:48.277Z,1012.71
2019-05-26T10:15:48.285Z,1012.72
2019-05-26T10:16:48.248Z,1012.70
2019-05-26T10:17:48.235Z,1012.68
2019-05-26T10:18:48.248Z,1012.61
2019-05-26T10:19:48.815Z,1012.59
2019-05-26T10:20:48.213Z,1012.69
2019-05-26T10:21:48.192Z,1012.66
2019-05-26T10:22:48.184Z,1012.60
2019-05-26T10:23:48.163Z,1012.63
2019-05-26T10:24:48.163Z,1012.62
2019-05-26T10:25:48.166Z,1012.57
2019-05-26T10:26:48.134Z,1012.61
2019-05-26T10:27:48.161Z,1012.59
2019-05-26T10:28:48.132Z,1012.66
2019-05-26T10:29:48.110Z,1012.60
2019-05-26T10:30:48.105Z,1012.55
2019-05-26T10:31:48.089Z,1012.60
2019-05-26T10:32:48.082Z,1012.56
2019-05-26T10:33:48.070Z,1012.60
2019-05-26T10:34:48.053Z,1012.57
2019-05-26T10:35:48.042Z,1012.62
2019-05-26T10:36:48.029Z,1012.57
2019-05-26T10:37:48.029Z,1012.63
2019-05-26T10:38:48.009Z,1012.51
2019-05-26T10:39:47.999Z,1012.56
2019-05-26T10:40:47.987Z,1012.56
2019-05-26T10:41:47.979Z,1012.66
2019-05-26T10:42:47.975Z,1012.63
2019-05-26T10:43:48.087Z,1012.55
2019-05-26T10:44:47.947Z,1012.51
2019-05-26T10:45:47.937Z,1012.54
2019-05-26T10:46:47.935Z,1012.61
2019-05-26T10:47:47.919Z,1012.54
2019-05-26T10:48:47.897Z,1012.64
2019-05-26T10:49:47.896Z,1012.64
2019-05-26T10:50:47.889Z,1012.60
2019-05-26T10:51:47.895Z,1012.63
2019-05-26T10:52:47.875Z,1012.60
2019-05-26T10:53:47.845Z,1012.60
2019-05-26T10:54:47.837Z,1012.61
2019-05-26T10:55:47.825Z,1012.62
2019-05-26T10:56:47.827Z,1012.66
2019-05-26T10:57:47.805Z,1012.59
2019-05-26T10:58:47.805Z,1012.58
2019-05-26T10:59:47.784Z,1012.50
2019-05-26T11:00:47.775Z,1012.53
2019-05-26T11:01:47.763Z,1012.53
2019-05-26T11:02:47.770Z,1012.55
2019-05-26T11:03:47.753Z,1012.52
2019-05-26T11:04:47.733Z,1012.47
2019-05-26T11:05:47.723Z,1012.40
2019-05-26T11:06:47.710Z,1012.39
2019-05-26T11:07:47.706Z,1012.41
2019-05-26T11:08:47.691Z,1012.36
2019-05-26T11:09:47.685Z,1012.55
2019-05-26T11:10:47.661Z,1012.41
2019-05-26T11:11:47.660Z,1012.46
2019-05-26T11:12:47.650Z,1012.38
2019-05-26T11:14:01.848Z,1012.40
2019-05-26T11:14:48.629Z,1012.30
2019-05-26T11:15:48.147Z,1012.26
2019-05-26T11:16:47.600Z,1012.28
2019-05-26T11:17:47.589Z,1012.26
2019-05-26T11:18:47.615Z,1012.27
2019-05-26T11:19:47.571Z,1012.23
2019-05-26T11:20:47.558Z,1012.16
2019-05-26T11:21:47.559Z,1012.19
2019-05-26T11:22:47.537Z,1012.29
2019-05-26T11:23:47.530Z,1012.19
2019-05-26T11:24:47.518Z,1012.31
2019-05-26T11:25:47.517Z,1012.22
2019-05-26T11:26:47.497Z,1012.26
2019-05-26T11:27:47.489Z,1012.19
2019-05-26T11:28:47.468Z,1012.14
2019-05-26T11:29:47.476Z,1012.13
2019-05-26T11:30:47.454Z,1012.18
2019-05-26T11:31:47.444Z,1012.11
2019-05-26T11:32:47.456Z,1012.10
2019-05-26T11:33:47.416Z,1012.12
2019-05-26T11:35:00.682Z,1012.16
2019-05-26T11:35:48.395Z,1012.05
2019-05-26T11:36:47.393Z,1012.12
2019-05-26T11:37:47.386Z,1012.13
2019-05-26T11:38:47.375Z,1012.09
2019-05-26T11:39:47.374Z,1012.15
2019-05-26T11:40:47.783Z,1012.13
2019-05-26T11:41:54.654Z,1012.12
2019-05-26T11:42:48.323Z,1012.10
2019-05-26T11:43:47.313Z,1012.06
2019-05-26T11:44:47.322Z,1012.07
2019-05-26T11:45:47.298Z,1012.06
2019-05-26T11:46:47.282Z,1011.99
2019-05-26T11:47:47.283Z,1011.88
2019-05-26T11:48:47.772Z,1011.91
2019-05-26T11:49:47.271Z,1011.95
2019-05-26T11:50:47.240Z,1011.99
2019-05-26T11:51:47.221Z,1011.80
2019-05-26T11:52:47.220Z,1011.95
2019-05-26T11:53:47.211Z,1011.91
2019-05-26T11:54:47.220Z,1011.99
2019-05-26T11:55:47.190Z,1011.89
2019-05-26T11:56:47.173Z,1012.00
2019-05-26T11:57:47.170Z,1011.96
2019-05-26T11:58:47.160Z,1012.03
2019-05-26T11:59:47.568Z,1011.93
2019-05-26T12:00:47.140Z,1011.96
2019-05-26T12:01:47.120Z,1012.04
2019-05-26T12:02:47.114Z,1012.05
2019-05-26T12:03:47.099Z,1012.04
2019-05-26T12:04:47.088Z,1011.98
2019-05-26T12:05:47.097Z,1012.03